createdAt,value
2018-11-27T00:01:11.173Z,101128.63
2018-11-27T00:03:46.352Z,101132.51
2018-11-27T00:06:16.639Z,101126.91
2018-11-27T00:08:46.765Z,101126.47
2018-11-27T00:11:17.005Z,101122.65
2018-11-27T00:13:47.260Z,101120.07
2018-11-27T00:16:17.437Z,101124.37
2018-11-27T00:18:47.664Z,101121.34
2018-11-27T00:21:17.896Z,101131.33
2018-11-27T00:23:49.109Z,101129.61
2018-11-27T00:26:19.328Z,101133.11
2018-11-27T00:28:49.622Z,101133.97
2018-11-27T00:31:19.846Z,101141.38
2018-11-27T00:33:49.962Z,101136.66
2018-11-27T00:36:20.079Z,101136.64
2018-11-27T00:38:50.264Z,101138.80
2018-11-27T00:41:21.295Z,101141.93
2018-11-27T00:43:51.552Z,101139.30
2018-11-27T00:46:21.706Z,101134.97
2018-11-27T00:48:51.905Z,101139.35
2018-11-27T00:51:22.018Z,101145.39
2018-11-27T00:53:52.191Z,101149.80
2018-11-27T00:56:22.415Z,101149.45
2018-11-27T00:58:52.534Z,101145.97
2018-11-27T01:01:22.730Z,101148.13
2018-11-27T01:03:52.936Z,101156.88
2018-11-27T01:06:23.209Z,101156.44
2018-11-27T01:08:53.372Z,101162.94
2018-11-27T01:11:24.211Z,101161.25
2018-11-27T01:13:54.336Z,101164.72
2018-11-27T01:16:24.532Z,101167.34
2018-11-27T01:18:54.669Z,101167.31
2018-11-27T01:21:24.895Z,101172.98
2018-11-27T01:23:55.045Z,101178.59
2018-11-27T01:26:25.247Z,101173.02
2018-11-27T01:28:55.595Z,101176.10
2018-11-27T01:31:25.792Z,101180.91
2018-11-27T01:33:56.078Z,101182.22
2018-11-27T01:36:26.312Z,101180.55
2018-11-27T01:38:56.420Z,101179.64
2018-11-27T01:41:26.640Z,101182.72
2018-11-27T01:43:56.819Z,101182.28
2018-11-27T01:46:26.992Z,101188.80
2018-11-27T01:48:57.140Z,101181.84
2018-11-27T01:51:27.293Z,101188.36
2018-11-27T01:53:57.530Z,101178.80
2018-11-27T01:56:27.693Z,101183.07
2018-11-27T01:58:58.061Z,101186.11
2018-11-27T02:01:28.308Z,101182.61
2018-11-27T02:03:58.574Z,101183.91
2018-11-27T02:06:28.723Z,101189.49
2018-11-27T02:08:58.876Z,101183.78
2018-11-27T02:11:28.958Z,101185.08
2018-11-27T02:13:59.140Z,101180.26
2018-11-27T02:16:29.238Z,101175.89
2018-11-27T02:18:59.410Z,101186.80
2018-11-27T02:21:29.538Z,101178.42
2018-11-27T02:23:59.721Z,101179.33
2018-11-27T02:26:29.851Z,101170.20
2018-11-27T02:28:59.941Z,101168.86
2018-11-27T02:31:30.186Z,101165.02
2018-11-27T02:34:00.291Z,101171.53
2018-11-27T02:36:30.484Z,101167.21
2018-11-27T02:39:00.648Z,101163.72
2018-11-27T02:41:30.823Z,101161.97
2018-11-27T02:44:01.009Z,101168.53
2018-11-27T02:46:31.194Z,101163.30
2018-11-27T02:49:01.359Z,101175.45
2018-11-27T02:51:31.475Z,101169.83
2018-11-27T02:54:01.672Z,101180.70
2018-11-27T02:56:31.849Z,101175.01
2018-11-27T02:59:01.931Z,101182.36
2018-11-27T03:01:32.153Z,101185.34
2018-11-27T03:04:02.292Z,101187.50
2018-11-27T03:06:32.443Z,101189.27
2018-11-27T03:09:02.660Z,101187.89
2018-11-27T03:11:32.900Z,101183.95
2018-11-27T03:14:03.006Z,101192.22
2018-11-27T03:16:33.129Z,101189.14
2018-11-27T03:19:03.330Z,101188.26
2018-11-27T03:21:33.400Z,101193.89
2018-11-27T03:24:03.607Z,101201.27
2018-11-27T03:26:33.818Z,101204.65
2018-11-27T03:29:04.085Z,101204.14
2018-11-27T03:31:34.233Z,101198.19
2018-11-27T03:34:04.494Z,101201.32
2018-11-27T03:36:34.665Z,101195.99
2018-11-27T03:39:07.268Z,101191.61
2018-11-27T03:41:37.461Z,101191.61
2018-11-27T03:44:07.996Z,101187.75
2018-11-27T03:46:38.174Z,101195.10
2018-11-27T03:49:08.807Z,101202.90
2018-11-27T03:51:38.954Z,101205.03
2018-11-27T03:54:09.151Z,101203.34
2018-11-27T03:56:39.398Z,101206.81
2018-11-27T03:59:09.622Z,101204.27
2018-11-27T04:01:39.883Z,101209.03
2018-11-27T04:04:14.883Z,101213.72
2018-11-27T04:06:45.025Z,101217.69
2018-11-27T04:09:15.181Z,101219.02
2018-11-27T04:11:45.261Z,101221.22
2018-11-27T04:14:16.652Z,101222.52
2018-11-27T04:16:46.883Z,101229.48
2018-11-27T04:19:16.997Z,101232.09
2018-11-27T04:21:47.119Z,101233.73
2018-11-27T04:24:17.264Z,101231.06
2018-11-27T04:26:47.441Z,101235.74
2018-11-27T04:29:17.599Z,101239.66
2018-11-27T04:31:47.726Z,101241.41
2018-11-27T04:34:17.936Z,101244.02
2018-11-27T04:36:48.095Z,101250.95
2018-11-27T04:39:18.198Z,101244.40
2018-11-27T04:41:48.388Z,101248.31
2018-11-27T04:44:18.539Z,101246.63
2018-11-27T04:46:48.642Z,101244.08
2018-11-27T04:49:18.823Z,101244.91
2018-11-27T04:51:48.991Z,101253.59
2018-11-27T04:54:19.227Z,101254.48
2018-11-27T04:56:49.325Z,101251.46
2018-11-27T04:59:19.431Z,101254.45
2018-11-27T05:01:49.528Z,101259.55
2018-11-27T05:04:19.700Z,101262.22
2018-11-27T05:06:49.815Z,101264.87
2018-11-27T05:09:19.983Z,101276.25
2018-11-27T05:11:50.135Z,101278.36
2018-11-27T05:14:20.363Z,101282.24
2018-11-27T05:16:50.598Z,101274.06
2018-11-27T05:19:20.747Z,101277.17
2018-11-27T05:21:50.831Z,101275.42
2018-11-27T05:24:20.955Z,101278.41
2018-11-27T05:26:51.150Z,101286.66
2018-11-27T05:29:21.286Z,101284.05
2018-11-27T05:31:51.414Z,101286.75
2018-11-27T05:34:21.567Z,101278.00
2018-11-27T05:36:51.708Z,101281.88
2018-11-27T05:39:21.974Z,101283.61
2018-11-27T05:41:52.306Z,101288.02
2018-11-27T05:44:22.560Z,101289.23
2018-11-27T05:46:52.686Z,101295.41
2018-11-27T05:49:22.831Z,101292.35
2018-11-27T05:51:53.044Z,101299.27
2018-11-27T05:54:23.215Z,101296.66
2018-11-27T05:56:53.334Z,101293.21
2018-11-27T05:59:23.561Z,101296.62
2018-11-27T06:01:53.681Z,101300.16
2018-11-27T06:04:23.921Z,101297.56
2018-11-27T06:06:53.991Z,101298.02
2018-11-27T06:09:24.215Z,101305.38
2018-11-27T06:11:54.444Z,101302.78
2018-11-27T06:14:24.586Z,101304.92
2018-11-27T06:16:54.790Z,101304.90
2018-11-27T06:19:24.886Z,101304.06
2018-11-27T06:21:55.143Z,101302.73
2018-11-27T06:24:25.286Z,101313.15
2018-11-27T06:26:55.368Z,101317.09
2018-11-27T06:29:25.429Z,101327.11
2018-11-27T06:31:55.554Z,101326.58
2018-11-27T06:34:25.663Z,101333.17
2018-11-27T06:36:55.776Z,101336.11
2018-11-27T06:39:26.001Z,101341.86
2018-11-27T06:41:56.165Z,101338.77
2018-11-27T06:44:26.339Z,101338.80
2018-11-27T06:46:56.440Z,101341.00
2018-11-27T06:49:26.561Z,101346.58
2018-11-27T06:51:56.650Z,101349.22
2018-11-27T06:54:26.808Z,101361.88
2018-11-27T06:56:57.082Z,101358.34
2018-11-27T06:59:27.186Z,101365.30
2018-11-27T07:01:57.389Z,101371.84
2018-11-27T07:04:27.619Z,101372.71
2018-11-27T07:06:57.847Z,101373.99
2018-11-27T07:09:27.992Z,101373.58
2018-11-27T07:11:58.128Z,101372.28
2018-11-27T07:14:34.707Z,101379.66
2018-11-27T07:17:04.859Z,101381.81
2018-11-27T07:19:35.062Z,101391.34
2018-11-27T07:22:05.162Z,101395.22
2018-11-27T07:24:35.330Z,101400.93
2018-11-27T07:27:05.496Z,101403.52
2018-11-27T07:29:35.918Z,101400.98
2018-11-27T07:32:09.389Z,101408.30
2018-11-27T07:34:36.789Z,101408.30
2018-11-27T07:37:07.155Z,101411.33
2018-11-27T07:39:37.373Z,101408.30
2018-11-27T07:42:07.795Z,101413.05
2018-11-27T07:44:38.283Z,101417.41
2018-11-27T07:47:08.414Z,101418.25
2018-11-27T07:49:38.752Z,101415.61
2018-11-27T07:52:08.927Z,101420.44
2018-11-27T07:54:39.190Z,101412.60
2018-11-27T07:57:09.617Z,101414.38
2018-11-27T07:59:50.843Z,101416.10
2018-11-27T08:02:21.215Z,101426.47
2018-11-27T08:04:51.384Z,101432.61
2018-11-27T08:07:21.558Z,101435.61
2018-11-27T08:09:52.060Z,101431.64
2018-11-27T08:12:22.264Z,101434.67
2018-11-27T08:14:52.399Z,101433.78
2018-11-27T08:17:22.491Z,101433.73
2018-11-27T08:19:52.625Z,101431.52
2018-11-27T08:22:22.999Z,101435.09
2018-11-27T08:24:53.267Z,101441.17
2018-11-27T08:27:23.902Z,101448.53
2018-11-27T08:29:54.273Z,101455.42
2018-11-27T08:32:24.316Z,101459.79
2018-11-27T08:34:54.465Z,101454.09
2018-11-27T08:37:24.630Z,101455.42
2018-11-27T08:39:54.840Z,101457.18
2018-11-27T08:42:24.900Z,101455.91
2018-11-27T08:44:54.992Z,101464.93
2018-11-27T08:47:25.182Z,101462.73
2018-11-27T08:49:55.309Z,101467.92
2018-11-27T08:52:25.536Z,101463.08
2018-11-27T08:54:55.713Z,101464.35
2018-11-27T08:57:25.917Z,101469.48
2018-11-27T08:59:56.075Z,101474.91
2018-11-27T09:02:26.233Z,101474.02
2018-11-27T09:04:56.359Z,101473.47
2018-11-27T09:07:26.524Z,101469.67
2018-11-27T09:09:57.046Z,101469.64
2018-11-27T09:12:27.364Z,101475.28
2018-11-27T09:14:57.595Z,101471.75
2018-11-27T09:17:27.729Z,101474.27
2018-11-27T09:19:57.954Z,101474.26
2018-11-27T09:22:28.160Z,101468.99
2018-11-27T09:24:58.450Z,101477.66
2018-11-27T09:27:28.583Z,101482.03
2018-11-27T09:29:59.418Z,101493.45
2018-11-27T09:32:29.807Z,101498.20
2018-11-27T09:34:59.950Z,101495.30
2018-11-27T09:37:30.380Z,101499.55
2018-11-27T09:40:00.563Z,101514.05
2018-11-27T09:42:30.359Z,101508.22
2018-11-27T09:45:00.518Z,101506.05
2018-11-27T09:47:30.652Z,101504.77
2018-11-27T09:50:00.816Z,101503.44
2018-11-27T09:52:31.059Z,101512.55
2018-11-27T09:55:01.309Z,101516.41
2018-11-27T09:57:31.461Z,101511.25
2018-11-27T10:00:01.926Z,101507.80
2018-11-27T10:02:32.185Z,101500.78
2018-11-27T10:05:02.409Z,101501.61
2018-11-27T10:07:32.795Z,101494.92
2018-11-27T10:10:03.013Z,101497.98
2018-11-27T10:12:34.511Z,101490.59
2018-11-27T10:15:05.300Z,101481.62
2018-11-27T10:17:35.978Z,101482.00
2018-11-27T10:20:08.921Z,101481.81
2018-11-27T10:22:39.092Z,101469.74
2018-11-27T10:25:11.459Z,101473.55
2018-11-27T10:27:42.374Z,101471.87
2018-11-27T10:30:20.995Z,101476.57
2018-11-27T10:32:54.186Z,101475.72
2018-11-27T10:35:28.715Z,101474.73
2018-11-27T10:37:58.814Z,101475.01
2018-11-27T10:40:29.281Z,101469.78
2018-11-27T10:43:00.226Z,101470.85
2018-11-27T10:45:31.471Z,101463.45
2018-11-27T10:48:01.567Z,101460.89
2018-11-27T10:50:33.465Z,101464.22
2018-11-27T10:53:03.844Z,101470.14
2018-11-27T10:55:34.077Z,101474.45
2018-11-27T10:58:04.331Z,101472.97
2018-11-27T11:00:39.776Z,101475.23
2018-11-27T11:03:25.341Z,101470.95
2018-11-27T11:05:56.983Z,101466.48
2018-11-27T11:08:27.579Z,101468.95
2018-11-27T11:10:57.762Z,101468.03
2018-11-27T11:13:28.350Z,101473.97
2018-11-27T11:15:58.633Z,101475.34
2018-11-27T11:18:28.776Z,101486.62
2018-11-27T11:20:59.164Z,101496.02
2018-11-27T11:23:29.359Z,101500.86
2018-11-27T11:25:59.645Z,101508.77
2018-11-27T11:28:32.071Z,101499.64
2018-11-27T11:31:02.339Z,101497.57
2018-11-27T11:33:32.608Z,101497.30
2018-11-27T11:36:02.826Z,101498.55
2018-11-27T11:38:32.969Z,101492.50
2018-11-27T11:41:06.642Z,101495.17
2018-11-27T11:43:37.020Z,101493.77
2018-11-27T11:46:08.359Z,101492.41
2018-11-27T11:48:43.340Z,101490.75
2018-11-27T11:51:13.514Z,101501.02
2018-11-27T11:53:47.044Z,101499.26
2018-11-27T11:56:17.345Z,101498.14
2018-11-27T11:58:47.459Z,101502.72
2018-11-27T12:01:17.681Z,101500.00
2018-11-27T12:03:47.806Z,101498.95
2018-11-27T12:06:17.992Z,101499.80
2018-11-27T12:08:48.152Z,101496.92
2018-11-27T12:11:18.328Z,101504.27
2018-11-27T12:13:48.549Z,101501.56
2018-11-27T12:16:18.699Z,101498.73
2018-11-27T12:18:48.927Z,101495.52
2018-11-27T12:21:19.087Z,101493.20
2018-11-27T12:23:49.283Z,101497.09
2018-11-27T12:26:19.430Z,101495.22
2018-11-27T12:28:49.552Z,101502.91
2018-11-27T12:31:20.810Z,101504.69
2018-11-27T12:33:50.905Z,101506.44
2018-11-27T12:36:21.049Z,101510.17
2018-11-27T12:38:51.271Z,101517.14
2018-11-27T12:41:21.578Z,101519.34
2018-11-27T12:43:51.688Z,101517.09
2018-11-27T12:46:21.945Z,101524.09
2018-11-27T12:48:52.265Z,101520.00
2018-11-27T12:51:22.368Z,101527.03
2018-11-27T12:53:52.618Z,101523.06
2018-11-27T12:56:22.829Z,101517.93
2018-11-27T12:58:52.946Z,101518.56
2018-11-27T13:01:23.117Z,101522.39
2018-11-27T13:03:53.314Z,101524.61
2018-11-27T13:06:27.807Z,101534.80
2018-11-27T13:08:53.789Z,101537.84
2018-11-27T13:11:26.953Z,101533.90
2018-11-27T13:13:57.070Z,101533.09
2018-11-27T13:16:27.283Z,101533.19
2018-11-27T13:18:57.437Z,101534.72
2018-11-27T13:21:27.584Z,101530.83
2018-11-27T13:23:58.473Z,101530.78
2018-11-27T13:26:29.049Z,101526.86
2018-11-27T13:29:03.864Z,101526.85
2018-11-27T13:31:34.459Z,101525.19
2018-11-27T13:34:16.378Z,101520.50
2018-11-27T13:36:47.173Z,101519.23
2018-11-27T13:39:32.309Z,101522.53
2018-11-27T13:42:02.522Z,101522.11
2018-11-27T13:44:33.012Z,101521.71
2018-11-27T13:47:03.247Z,101530.38
2018-11-27T13:49:33.424Z,101534.12
2018-11-27T13:52:03.607Z,101532.00
2018-11-27T13:54:33.742Z,101526.16
2018-11-27T13:57:04.198Z,101525.89
2018-11-27T13:59:34.345Z,101520.70
2018-11-27T14:02:04.548Z,101524.19
2018-11-27T14:04:34.595Z,101526.00
2018-11-27T14:07:04.734Z,101521.56
2018-11-27T14:09:34.860Z,101521.17
2018-11-27T14:12:05.002Z,101524.58
2018-11-27T14:14:35.079Z,101531.89
2018-11-27T14:17:06.396Z,101533.20
2018-11-27T14:19:36.557Z,101535.41
2018-11-27T14:22:07.618Z,101533.91
2018-11-27T14:24:37.650Z,101534.30
2018-11-27T14:27:07.769Z,101541.81
2018-11-27T14:29:37.857Z,101548.81
2018-11-27T14:32:08.248Z,101537.88
2018-11-27T14:34:38.382Z,101541.30
2018-11-27T14:37:08.545Z,101541.91
2018-11-27T14:39:38.679Z,101541.96
2018-11-27T14:42:10.794Z,101541.86
2018-11-27T14:44:40.969Z,101548.37
2018-11-27T14:47:11.188Z,101560.16
2018-11-27T14:49:41.331Z,101561.75
2018-11-27T14:52:11.488Z,101561.25
2018-11-27T14:54:44.697Z,101554.86
2018-11-27T14:57:14.895Z,101563.66
2018-11-27T14:59:45.033Z,101562.88
2018-11-27T15:02:15.136Z,101569.39
2018-11-27T15:04:45.214Z,101572.58
2018-11-27T15:07:15.330Z,101569.92
2018-11-27T15:09:45.432Z,101572.62
2018-11-27T15:12:15.610Z,101575.72
2018-11-27T15:14:45.740Z,101571.31
2018-11-27T15:17:15.900Z,101575.65
2018-11-27T15:19:46.053Z,101565.30
2018-11-27T15:22:16.163Z,101567.58
2018-11-27T15:24:46.254Z,101569.86
2018-11-27T15:27:16.384Z,101569.33
2018-11-27T15:29:46.515Z,101573.74
2018-11-27T15:32:16.679Z,101571.95
2018-11-27T15:34:47.421Z,101576.63
2018-11-27T15:37:17.504Z,101577.94
2018-11-27T15:39:47.655Z,101572.36
2018-11-27T15:42:17.810Z,101579.01
2018-11-27T15:44:47.968Z,101588.13
2018-11-27T15:47:18.110Z,101576.33
2018-11-27T15:49:48.198Z,101573.30
2018-11-27T15:52:18.467Z,101570.64
2018-11-27T15:54:48.667Z,101565.34
2018-11-27T15:57:18.898Z,101565.00
2018-11-27T15:59:50.982Z,101562.83
2018-11-27T16:02:21.178Z,101562.11
2018-11-27T16:04:51.440Z,101562.04
2018-11-27T16:07:21.699Z,101566.86
2018-11-27T16:09:52.044Z,101569.92
2018-11-27T16:12:22.462Z,101571.09
2018-11-27T16:14:52.555Z,101572.50
2018-11-27T16:17:22.672Z,101573.88
2018-11-27T16:19:53.033Z,101571.16
2018-11-27T16:22:23.625Z,101578.22
2018-11-27T16:24:54.039Z,101574.33
2018-11-27T16:27:24.327Z,101579.97
2018-11-27T16:29:54.800Z,101581.63
2018-11-27T16:32:25.477Z,101572.47
2018-11-27T16:34:55.712Z,101575.60
2018-11-27T16:37:25.953Z,101580.00
2018-11-27T16:39:56.052Z,101575.25
2018-11-27T16:42:30.577Z,101570.84
2018-11-27T16:44:56.673Z,101579.11
2018-11-27T16:47:27.048Z,101583.03
2018-11-27T16:49:57.522Z,101588.36
2018-11-27T16:52:28.009Z,101579.20
2018-11-27T16:54:58.334Z,101580.09
2018-11-27T16:57:28.638Z,101587.02
2018-11-27T16:59:58.857Z,101578.31
2018-11-27T17:02:29.093Z,101568.36
2018-11-27T17:04:59.368Z,101561.82
2018-11-27T17:07:29.726Z,101563.69
2018-11-27T17:09:59.942Z,101577.30
2018-11-27T17:12:30.305Z,101582.62
2018-11-27T17:15:00.793Z,101576.02
2018-11-27T17:17:31.000Z,101583.46
2018-11-27T17:20:01.336Z,101586.47
2018-11-27T17:22:31.752Z,101591.31
2018-11-27T17:25:01.886Z,101588.27
2018-11-27T17:27:35.023Z,101585.18
2018-11-27T17:30:10.409Z,101584.28
2018-11-27T17:32:41.615Z,101582.87
2018-11-27T17:35:13.505Z,101589.09
2018-11-27T17:37:44.221Z,101591.78
2018-11-27T17:40:15.088Z,101593.14
2018-11-27T17:42:45.421Z,101596.17
2018-11-27T17:45:16.598Z,101600.56
2018-11-27T17:47:47.389Z,101600.50
2018-11-27T17:50:18.809Z,101594.84
2018-11-27T17:52:48.929Z,101601.84
2018-11-27T17:55:19.195Z,101612.34
2018-11-27T17:57:49.638Z,101610.63
2018-11-27T18:00:30.308Z,101616.72
2018-11-27T18:03:07.926Z,101615.46
2018-11-27T18:05:37.995Z,101604.18
2018-11-27T18:08:08.706Z,101599.41
2018-11-27T18:10:38.831Z,101603.77
2018-11-27T18:13:09.807Z,101605.92
2018-11-27T18:15:40.223Z,101608.50
2018-11-27T18:18:10.818Z,101608.53
2018-11-27T18:20:41.683Z,101605.02
2018-11-27T18:23:12.329Z,101611.47
2018-11-27T18:25:42.866Z,101607.03
2018-11-27T18:28:12.967Z,101603.15
2018-11-27T18:30:43.095Z,101603.66
2018-11-27T18:33:13.230Z,101607.52
2018-11-27T18:35:43.856Z,101603.16
2018-11-27T18:38:14.043Z,101602.38
2018-11-27T18:40:44.305Z,101600.58
2018-11-27T18:43:14.841Z,101603.14
2018-11-27T18:45:44.876Z,101599.69
2018-11-27T18:48:16.144Z,101600.08
2018-11-27T18:50:46.803Z,101594.88
2018-11-27T18:53:16.924Z,101592.84
2018-11-27T18:55:47.442Z,101591.99
2018-11-27T18:58:18.022Z,101596.80
2018-11-27T19:00:48.093Z,101592.91
2018-11-27T19:03:18.579Z,101584.23
2018-11-27T19:05:48.713Z,101582.48
2018-11-27T19:08:18.837Z,101577.24
2018-11-27T19:10:48.976Z,101573.78
2018-11-27T19:13:19.721Z,101575.50
2018-11-27T19:15:50.080Z,101576.80
2018-11-27T19:18:26.466Z,101572.03
2018-11-27T19:20:57.803Z,101577.66
2018-11-27T19:23:28.358Z,101581.12
2018-11-27T19:25:58.502Z,101580.26
2018-11-27T19:28:28.729Z,101566.34
2018-11-27T19:30:59.020Z,101562.04
2018-11-27T19:33:29.216Z,101559.86
2018-11-27T19:36:00.286Z,101561.59
2018-11-27T19:38:37.286Z,101580.24
2018-11-27T19:41:07.446Z,101578.05
2018-11-27T19:43:37.591Z,101580.62
2018-11-27T19:46:08.678Z,101587.57
2018-11-27T19:48:38.990Z,101591.80
2018-11-27T19:51:09.728Z,101604.75
2018-11-27T19:53:40.530Z,101608.92
2018-11-27T19:56:10.729Z,101605.44
2018-11-27T19:58:40.900Z,101608.84
2018-11-27T20:01:11.375Z,101609.02
2018-11-27T20:03:42.862Z,101608.73
2018-11-27T20:06:13.329Z,101600.98
2018-11-27T20:08:43.422Z,101598.87
2018-11-27T20:11:13.871Z,101593.61
2018-11-27T20:13:44.472Z,101595.75
2018-11-27T20:16:15.336Z,101597.90
2018-11-27T20:18:45.583Z,101599.69
2018-11-27T20:21:15.962Z,101606.12
2018-11-27T20:23:46.433Z,101604.34
2018-11-27T20:26:16.497Z,101607.41
2018-11-27T20:28:46.634Z,101608.23
2018-11-27T20:31:16.883Z,101600.00
2018-11-27T20:33:47.001Z,101592.23
2018-11-27T20:36:17.121Z,101592.20
2018-11-27T20:38:47.269Z,101597.84
2018-11-27T20:41:17.371Z,101597.83
2018-11-27T20:43:47.558Z,101592.19
2018-11-27T20:46:17.722Z,101590.44
2018-11-27T20:48:47.897Z,101602.59
2018-11-27T20:51:18.015Z,101603.51
2018-11-27T20:53:48.346Z,101614.28
2018-11-27T20:56:18.509Z,101615.57
2018-11-27T20:58:48.645Z,101617.77
2018-11-27T21:01:18.831Z,101615.52
2018-11-27T21:03:49.046Z,101617.27
2018-11-27T21:06:19.200Z,101607.72
2018-11-27T21:08:49.395Z,101603.78
2018-11-27T21:11:19.514Z,101600.31
2018-11-27T21:13:49.701Z,101604.67
2018-11-27T21:16:19.936Z,101603.78
2018-11-27T21:18:50.063Z,101604.59
2018-11-27T21:21:20.571Z,101608.09
2018-11-27T21:23:51.229Z,101607.25
2018-11-27T21:26:21.455Z,101605.10
2018-11-27T21:28:51.663Z,101602.08
2018-11-27T21:31:24.115Z,101609.80
2018-11-27T21:33:52.637Z,101611.10
2018-11-27T21:36:22.968Z,101619.32
2018-11-27T21:38:53.097Z,101609.80
2018-11-27T21:41:23.393Z,101615.71
2018-11-27T21:43:53.998Z,101609.25
2018-11-27T21:46:24.088Z,101622.65
2018-11-27T21:48:54.307Z,101610.52
2018-11-27T21:51:24.507Z,101616.58
2018-11-27T21:53:55.033Z,101620.36
2018-11-27T21:56:25.145Z,101617.33
2018-11-27T21:58:55.285Z,101618.55
2018-11-27T22:01:25.366Z,101612.11
2018-11-27T22:03:55.529Z,101612.94
2018-11-27T22:06:25.597Z,101612.52
2018-11-27T22:08:55.790Z,101613.73
2018-11-27T22:11:25.853Z,101600.69
2018-11-27T22:13:55.950Z,101612.77
2018-11-27T22:16:26.055Z,101608.09
2018-11-27T22:18:56.190Z,101609.39
2018-11-27T22:21:26.290Z,101600.23
2018-11-27T22:23:56.380Z,101600.16
2018-11-27T22:26:26.495Z,101602.17
2018-11-27T22:28:56.616Z,101591.34
2018-11-27T22:31:26.709Z,101591.83
2018-11-27T22:33:56.889Z,101591.86
2018-11-27T22:36:27.010Z,101599.64
2018-11-27T22:38:57.094Z,101599.16
2018-11-27T22:41:27.170Z,101602.07
2018-11-27T22:43:57.486Z,101604.70
2018-11-27T22:46:27.570Z,101603.80
2018-11-27T22:48:57.764Z,101615.88
2018-11-27T22:51:27.786Z,101614.22
2018-11-27T22:53:57.850Z,101625.58
2018-11-27T22:56:28.122Z,101615.84
2018-11-27T22:58:58.240Z,101614.47
2018-11-27T23:01:28.439Z,101616.20
2018-11-27T23:03:58.548Z,101612.82
2018-11-27T23:06:28.664Z,101613.22
2018-11-27T23:08:58.877Z,101606.78
2018-11-27T23:11:29.015Z,101596.39
2018-11-27T23:13:59.231Z,101599.55
2018-11-27T23:16:29.372Z,101590.81
2018-11-27T23:18:59.547Z,101589.11
2018-11-27T23:21:29.665Z,101587.35
2018-11-27T23:23:59.847Z,101583.00
2018-11-27T23:26:29.935Z,101589.80
2018-11-27T23:29:00.076Z,101589.44
2018-11-27T23:31:30.214Z,101578.26
2018-11-27T23:34:00.321Z,101579.89
2018-11-27T23:36:30.393Z,101581.50
2018-11-27T23:39:00.479Z,101578.87
2018-11-27T23:41:30.538Z,101581.96
2018-11-27T23:44:00.710Z,101575.52
2018-11-27T23:46:30.762Z,101578.06
2018-11-27T23:49:00.892Z,101572.41
2018-11-27T23:51:31.013Z,101572.97
2018-11-27T23:54:01.155Z,101563.03
2018-11-27T23:56:31.315Z,101572.52
2018-11-27T23:59:01.481Z,101568.84
